Lesley Pg — MXUG5 — position and weather

sailwx.info

Track history (hours):
 
Tides and Currents Weather Stations Pressure Air Temp Water Temp Dewpoint Dewpoint Depression Visibility Wind Speed Wind Dir Waves Ship Positions

Lesley Pg

Last reported at 2016-Jun-29 04:17 UTC. Time now 2016-Jun-29 21:59 UTC.
Position N 16°11' W 061°31'.

Length 102 m; draft 4.5 m.

Type: Tanker. MMSI: 234910000.

Date/timePositionNaut miles runAvg speedWind from/ knotsBaromVisibWave heightAir tempDewpointWater temp
2016-Jun-29 04:17N 16°11' W 061°31'4 0.4
2016-Jun-28 19:33N 16°14' W 061°33'22 7.0
2016-Jun-28 16:22N 15°55' W 061°46'2912.7
2016-Jun-28 14:04N 16°18' W 062°05'713.2
2016-Jun-28 13:33N 16°23' W 062°10'1312.9
2016-Jun-28 12:33N 16°33' W 062°18'1312.9
2016-Jun-28 11:33N 16°43' W 062°26'6612.8
2016-Jun-28 06:24N 17°36' W 063°08'2612.2
2016-Jun-28 04:16N 17°50' W 063°31'912.6
2016-Jun-28 03:32N 17°54' W 063°40'5512.4
2016-Jun-27 23:07N 18°19' W 064°31'711.7
2016-Jun-27 22:33N 18°25' W 064°35'1 0.1
2016-Jun-27 12:33N 18°24' W 064°35'6212.4
2016-Jun-27 07:34N 18°06' W 063°33'1412.9
2016-Jun-27 06:30N 18°03' W 063°19'1212.7
2016-Jun-27 05:32N 18°00' W 063°06'1 1.1
2016-Jun-27 04:25N 18°01' W 063°05'0 0.0
2016-Jun-27 03:22N 18°01' W 063°05'0 0.0
2016-Jun-27 02:25N 18°01' W 063°05'0 0.0
2016-Jun-27 01:28N 18°01' W 063°05'0 0.0
2016-Jun-27 00:31N 18°01' W 063°05'0 0.0
2016-Jun-26 23:28N 18°01' W 063°05'0 0.0
2016-Jun-26 22:31N 18°01' W 063°05'0 0.0
2016-Jun-26 21:31N 18°01' W 063°05'0 0.0
2016-Jun-26 20:31N 18°01' W 063°05'0 0.0
2016-Jun-26 19:31N 18°01' W 063°05'0 0.0
2016-Jun-26 18:22N 18°01' W 063°05'0 0.0
2016-Jun-26 17:22N 18°01' W 063°05'0 0.0
2016-Jun-26 16:34N 18°01' W 063°05'0 0.0
2016-Jun-26 15:34N 18°01' W 063°05'0 0.0
2016-Jun-26 14:25N 18°01' W 063°05'0 0.0
2016-Jun-26 13:13N 18°01' W 063°05'0 0.0
2016-Jun-26 12:31N 18°01' W 063°05'0 0.0
2016-Jun-26 11:28N 18°01' W 063°05'0 0.0
2016-Jun-26 10:31N 18°01' W 063°05'0 0.0
2016-Jun-26 09:31N 18°01' W 063°05'0 0.0
2016-Jun-26 07:31N 18°01' W 063°05'0 0.0
2016-Jun-26 06:34N 18°01' W 063°05'0 0.0
2016-Jun-26 05:33N 18°01' W 063°05'0 0.0
2016-Jun-26 04:32N 18°01' W 063°05'0 0.0
2016-Jun-26 03:26N 18°01' W 063°05'0 0.0
2016-Jun-26 02:28N 18°01' W 063°05'0 0.0
2016-Jun-26 01:29N 18°01' W 063°05'0 0.0
2016-Jun-26 00:30N 18°01' W 063°05'0 0.0
2016-Jun-25 23:27N 18°01' W 063°05'0 0.0
2016-Jun-25 22:29N 18°01' W 063°05'0 0.1
2016-Jun-25 21:22N 18°01' W 063°05'6 7.7
2016-Jun-25 20:32N 17°55' W 063°02'4611.6
2016-Jun-25 16:33N 17°29' W 062°23'1212.3
2016-Jun-25 15:33N 17°22' W 062°12'1212.5
2016-Jun-25 14:34N 17°15' W 062°01'9 8.9
2016-Jun-25 13:33N 17°10' W 061°54'1 1.4
2016-Jun-25 12:32N 17°09' W 061°52'0 0.1
2016-Jun-25 11:32N 17°09' W 061°52'0 0.0
2016-Jun-25 10:32N 17°09' W 061°52'0 0.0
2016-Jun-25 09:32N 17°09' W 061°52'0 0.0
2016-Jun-25 08:32N 17°09' W 061°52'0 0.0
2016-Jun-25 07:32N 17°09' W 061°52'0 0.0
2016-Jun-25 06:32N 17°09' W 061°52'0 0.0
2016-Jun-25 05:32N 17°09' W 061°52'0 0.0
2016-Jun-25 04:33N 17°09' W 061°52'0 0.0
2016-Jun-25 03:32N 17°09' W 061°52'0 0.0
2016-Jun-25 02:32N 17°09' W 061°52'0 0.0
2016-Jun-25 01:32N 17°09' W 061°52'0 0.0
2016-Jun-25 00:32N 17°09' W 061°52'0 0.0
2016-Jun-24 23:32N 17°09' W 061°52'0 0.0
2016-Jun-24 22:29N 17°09' W 061°52'0 0.0
2016-Jun-24 21:32N 17°09' W 061°52'0 0.0
2016-Jun-24 20:32N 17°09' W 061°52'0 0.0
2016-Jun-24 19:32N 17°09' W 061°52'0 0.0
2016-Jun-24 18:23N 17°09' W 061°52'0 0.0
2016-Jun-24 17:32N 17°09' W 061°52'0 0.0
2016-Jun-24 16:32N 17°09' W 061°52'0 0.0
2016-Jun-24 15:32N 17°09' W 061°52'0 0.0
2016-Jun-24 14:33N 17°09' W 061°52'0 0.0
2016-Jun-24 13:33N 17°09' W 061°52'0 0.0
2016-Jun-24 12:33N 17°09' W 061°52'1 1.1
2016-Jun-24 11:33N 17°09' W 061°53'4 4.4
2016-Jun-24 10:34N 17°08' W 061°58'1111.1
2016-Jun-24 09:33N 16°57' W 061°59'1110.8
2016-Jun-24 08:33N 16°46' W 061°60'1110.7
2016-Jun-24 07:33N 16°36' W 062°01'1110.7
2016-Jun-24 06:33N 16°25' W 062°02'  
Track history (hours):
 
Tides and Currents Weather Stations Pressure Air Temp Water Temp Dewpoint Dewpoint Depression Visibility Wind Speed Wind Dir Waves Ship Positions

Lesley Pg

Last reported at 2016-Jun-29 04:17 UTC. Time now 2016-Jun-29 21:59 UTC.
Position N 16°11' W 061°31'.

Length 102 m; draft 4.5 m.

Type: Tanker. MMSI: 234910000.

Date/timePositionNaut miles runAvg speedWind from/ knotsBaromVisibWave heightAir tempDewpointWater temp
2016-Jun-29 04:17N 16°11' W 061°31'4 0.4
2016-Jun-28 19:33N 16°14' W 061°33'22 7.0
2016-Jun-28 16:22N 15°55' W 061°46'2912.7
2016-Jun-28 14:04N 16°18' W 062°05'713.2
2016-Jun-28 13:33N 16°23' W 062°10'1312.9
2016-Jun-28 12:33N 16°33' W 062°18'1312.9
2016-Jun-28 11:33N 16°43' W 062°26'6612.8
2016-Jun-28 06:24N 17°36' W 063°08'2612.2
2016-Jun-28 04:16N 17°50' W 063°31'912.6
2016-Jun-28 03:32N 17°54' W 063°40'5512.4
2016-Jun-27 23:07N 18°19' W 064°31'711.7
2016-Jun-27 22:33N 18°25' W 064°35'1 0.1
2016-Jun-27 12:33N 18°24' W 064°35'6212.4
2016-Jun-27 07:34N 18°06' W 063°33'1412.9
2016-Jun-27 06:30N 18°03' W 063°19'1212.7
2016-Jun-27 05:32N 18°00' W 063°06'1 1.1
2016-Jun-27 04:25N 18°01' W 063°05'0 0.0
2016-Jun-27 03:22N 18°01' W 063°05'0 0.0
2016-Jun-27 02:25N 18°01' W 063°05'0 0.0
2016-Jun-27 01:28N 18°01' W 063°05'0 0.0
2016-Jun-27 00:31N 18°01' W 063°05'0 0.0
2016-Jun-26 23:28N 18°01' W 063°05'0 0.0
2016-Jun-26 22:31N 18°01' W 063°05'0 0.0
2016-Jun-26 21:31N 18°01' W 063°05'0 0.0
2016-Jun-26 20:31N 18°01' W 063°05'0 0.0
2016-Jun-26 19:31N 18°01' W 063°05'0 0.0
2016-Jun-26 18:22N 18°01' W 063°05'0 0.0
2016-Jun-26 17:22N 18°01' W 063°05'0 0.0
2016-Jun-26 16:34N 18°01' W 063°05'0 0.0
2016-Jun-26 15:34N 18°01' W 063°05'0 0.0
2016-Jun-26 14:25N 18°01' W 063°05'0 0.0
2016-Jun-26 13:13N 18°01' W 063°05'0 0.0
2016-Jun-26 12:31N 18°01' W 063°05'0 0.0
2016-Jun-26 11:28N 18°01' W 063°05'0 0.0
2016-Jun-26 10:31N 18°01' W 063°05'0 0.0
2016-Jun-26 09:31N 18°01' W 063°05'0 0.0
2016-Jun-26 07:31N 18°01' W 063°05'0 0.0
2016-Jun-26 06:34N 18°01' W 063°05'0 0.0
2016-Jun-26 05:33N 18°01' W 063°05'0 0.0
2016-Jun-26 04:32N 18°01' W 063°05'0 0.0
2016-Jun-26 03:26N 18°01' W 063°05'0 0.0
2016-Jun-26 02:28N 18°01' W 063°05'0 0.0
2016-Jun-26 01:29N 18°01' W 063°05'0 0.0
2016-Jun-26 00:30N 18°01' W 063°05'0 0.0
2016-Jun-25 23:27N 18°01' W 063°05'0 0.0
2016-Jun-25 22:29N 18°01' W 063°05'0 0.1
2016-Jun-25 21:22N 18°01' W 063°05'6 7.7
2016-Jun-25 20:32N 17°55' W 063°02'4611.6
2016-Jun-25 16:33N 17°29' W 062°23'1212.3
2016-Jun-25 15:33N 17°22' W 062°12'1212.5
2016-Jun-25 14:34N 17°15' W 062°01'9 8.9
2016-Jun-25 13:33N 17°10' W 061°54'1 1.4
2016-Jun-25 12:32N 17°09' W 061°52'0 0.1
2016-Jun-25 11:32N 17°09' W 061°52'0 0.0
2016-Jun-25 10:32N 17°09' W 061°52'0 0.0
2016-Jun-25 09:32N 17°09' W 061°52'0 0.0
2016-Jun-25 08:32N 17°09' W 061°52'0 0.0
2016-Jun-25 07:32N 17°09' W 061°52'0 0.0
2016-Jun-25 06:32N 17°09' W 061°52'0 0.0
2016-Jun-25 05:32N 17°09' W 061°52'0 0.0
2016-Jun-25 04:33N 17°09' W 061°52'0 0.0
2016-Jun-25 03:32N 17°09' W 061°52'0 0.0
2016-Jun-25 02:32N 17°09' W 061°52'0 0.0
2016-Jun-25 01:32N 17°09' W 061°52'0 0.0
2016-Jun-25 00:32N 17°09' W 061°52'0 0.0
2016-Jun-24 23:32N 17°09' W 061°52'0 0.0
2016-Jun-24 22:29N 17°09' W 061°52'0 0.0
2016-Jun-24 21:32N 17°09' W 061°52'0 0.0
2016-Jun-24 20:32N 17°09' W 061°52'0 0.0
2016-Jun-24 19:32N 17°09' W 061°52'0 0.0
2016-Jun-24 18:23N 17°09' W 061°52'0 0.0
2016-Jun-24 17:32N 17°09' W 061°52'0 0.0
2016-Jun-24 16:32N 17°09' W 061°52'0 0.0
2016-Jun-24 15:32N 17°09' W 061°52'0 0.0
2016-Jun-24 14:33N 17°09' W 061°52'0 0.0
2016-Jun-24 13:33N 17°09' W 061°52'0 0.0
2016-Jun-24 12:33N 17°09' W 061°52'1 1.1
2016-Jun-24 11:33N 17°09' W 061°53'4 4.4
2016-Jun-24 10:34N 17°08' W 061°58'1111.1
2016-Jun-24 09:33N 16°57' W 061°59'1110.8
2016-Jun-24 08:33N 16°46' W 061°60'1110.7
2016-Jun-24 07:33N 16°36' W 062°01'1110.7
2016-Jun-24 06:33N 16°25' W 062°02'  

Dump ship's entire track history